createdAt,value
2023-03-19T00:02:16.531Z,7.03
2023-03-19T00:07:19.493Z,5.68
2023-03-19T00:12:21.546Z,10.77
2023-03-19T00:17:23.487Z,5.07
2023-03-19T00:22:25.391Z,6.77
2023-03-19T00:27:27.347Z,5.37
2023-03-19T00:32:29.217Z,7.40
2023-03-19T00:37:31.147Z,6.23
2023-03-19T00:42:33.014Z,9.80
2023-03-19T00:47:35.192Z,7.35
2023-03-19T00:52:37.147Z,4.37
2023-03-19T00:57:39.065Z,8.17
2023-03-19T01:02:40.979Z,11.00
2023-03-19T01:07:42.868Z,8.33
2023-03-19T01:12:44.772Z,6.40
2023-03-19T01:17:47.218Z,6.37
2023-03-19T01:22:49.174Z,8.10
2023-03-19T01:27:51.809Z,7.67
2023-03-19T01:37:55.502Z,10.55
2023-03-19T01:43:11.886Z,8.23
2023-03-19T01:48:21.158Z,11.88
2023-03-19T01:53:28.247Z,7.97
2023-03-19T01:58:30.222Z,9.40
2023-03-19T02:03:32.064Z,5.30
2023-03-19T02:08:34.023Z,5.20
2023-03-19T02:13:35.893Z,5.33
2023-03-19T02:18:37.901Z,2.60
2023-03-19T02:23:52.284Z,6.77
2023-03-19T02:28:54.132Z,7.57
2023-03-19T02:34:28.161Z,4.83
2023-03-19T02:39:38.274Z,7.57
2023-03-19T02:44:40.263Z,5.93
2023-03-19T02:49:42.148Z,4.63
2023-03-19T02:54:44.065Z,5.27
2023-03-19T02:59:45.998Z,5.77
2023-03-19T03:04:47.911Z,8.40
2023-03-19T03:09:49.787Z,2.43
2023-03-19T03:14:51.692Z,3.57
2023-03-19T03:19:53.586Z,3.73
2023-03-19T03:24:55.461Z,4.57
2023-03-19T03:29:57.354Z,3.73
2023-03-19T03:34:59.300Z,2.20
2023-03-19T03:40:01.246Z,3.87
2023-03-19T03:45:03.575Z,3.97
2023-03-19T03:50:06.052Z,4.63
2023-03-19T03:55:08.676Z,4.10
2023-03-19T04:00:11.165Z,5.03
2023-03-19T04:05:13.062Z,5.93
2023-03-19T04:10:15.020Z,5.17
2023-03-19T04:15:17.035Z,3.53
2023-03-19T04:20:18.911Z,6.20
2023-03-19T04:25:20.778Z,12.43
2023-03-19T04:30:22.611Z,12.60
2023-03-19T04:35:24.562Z,9.37
2023-03-19T04:40:26.541Z,9.73
2023-03-19T04:45:28.409Z,7.63
2023-03-19T04:50:30.372Z,6.87
2023-03-19T04:55:32.363Z,6.33
2023-03-19T05:00:34.367Z,7.93
2023-03-19T05:05:36.307Z,9.73
2023-03-19T05:10:38.368Z,7.57
2023-03-19T05:15:42.803Z,12.55
2023-03-19T05:20:44.731Z,6.72
2023-03-19T05:25:46.739Z,7.33
2023-03-19T05:30:48.664Z,5.13
2023-03-19T05:35:50.600Z,5.27
2023-03-19T05:40:53.929Z,6.60
2023-03-19T05:45:55.927Z,12.83
2023-03-19T05:50:57.747Z,9.03
2023-03-19T05:55:59.738Z,7.32
2023-03-19T06:01:01.683Z,6.00
2023-03-19T06:06:03.634Z,5.43
2023-03-19T06:11:05.668Z,5.53
2023-03-19T06:16:08.216Z,8.17
2023-03-19T06:26:11.818Z,24.88
2023-03-19T06:31:13.679Z,5.00
2023-03-19T06:36:15.560Z,7.83
2023-03-19T06:41:17.415Z,4.93
2023-03-19T06:46:19.381Z,7.50
2023-03-19T06:51:21.383Z,6.27
2023-03-19T06:56:23.215Z,6.90
2023-03-19T07:01:25.244Z,7.23
2023-03-19T07:06:27.119Z,6.03
2023-03-19T07:11:29.237Z,5.38
2023-03-19T07:16:31.345Z,8.80
2023-03-19T07:21:33.297Z,5.37
2023-03-19T07:26:35.128Z,6.77
2023-03-19T07:31:37.098Z,6.57
2023-03-19T07:36:38.982Z,6.68
2023-03-19T07:41:40.826Z,4.28
2023-03-19T07:46:43.071Z,6.22
2023-03-19T07:56:46.526Z,9.77
2023-03-19T08:01:48.396Z,4.78
2023-03-19T08:06:50.302Z,9.57
2023-03-19T08:11:52.280Z,6.23
2023-03-19T08:16:54.241Z,5.53
2023-03-19T08:21:56.183Z,5.97
2023-03-19T08:26:58.117Z,8.40
2023-03-19T08:32:00.183Z,6.70
2023-03-19T08:37:02.181Z,10.10
2023-03-19T08:42:04.166Z,7.97
2023-03-19T08:47:06.169Z,8.03
2023-03-19T08:52:08.393Z,6.97
2023-03-19T08:57:10.477Z,5.23
2023-03-19T09:02:12.548Z,5.23
2023-03-19T09:07:14.478Z,6.30
2023-03-19T09:12:17.029Z,10.07
2023-03-19T09:17:18.955Z,9.52
2023-03-19T09:22:24.573Z,8.67
2023-03-19T09:27:26.775Z,9.48
2023-03-19T09:32:28.778Z,8.13
2023-03-19T09:37:30.776Z,10.23
2023-03-19T09:42:41.708Z,6.97
2023-03-19T09:47:43.665Z,6.43
2023-03-19T09:53:04.373Z,12.50
2023-03-19T09:58:13.041Z,9.15
2023-03-19T10:03:33.295Z,7.60
2023-03-19T10:08:41.947Z,11.57
2023-03-19T10:13:55.742Z,5.68
2023-03-19T10:19:02.670Z,8.70
2023-03-19T10:24:14.006Z,9.75
2023-03-19T10:29:19.940Z,9.35
2023-03-19T10:34:35.777Z,11.13
2023-03-19T10:39:37.858Z,8.40
2023-03-19T10:45:10.406Z,6.57
2023-03-19T10:50:19.522Z,5.55
2023-03-19T10:55:25.501Z,7.63
2023-03-19T11:00:27.373Z,7.15
2023-03-19T11:05:31.764Z,10.07
2023-03-19T11:10:34.949Z,7.53
2023-03-19T11:15:39.813Z,11.27
2023-03-19T11:20:41.615Z,11.95
2023-03-19T11:25:59.319Z,7.03
2023-03-19T11:31:20.237Z,9.18
2023-03-19T11:36:28.039Z,9.40
2023-03-19T11:41:44.743Z,9.18
2023-03-19T11:47:17.862Z,16.60
2023-03-19T11:52:38.369Z,11.00
2023-03-19T11:58:05.659Z,10.60
2023-03-19T12:03:55.909Z,10.32
2023-03-19T12:08:57.744Z,12.50
2023-03-19T12:14:11.269Z,11.27
2023-03-19T12:19:24.809Z,10.40
2023-03-19T12:24:47.657Z,10.73
2023-03-19T12:30:04.023Z,10.10
2023-03-19T12:35:10.948Z,9.30
2023-03-19T12:40:34.601Z,13.68
2023-03-19T12:45:41.852Z,9.35
2023-03-19T12:50:46.088Z,9.68
2023-03-19T12:55:50.317Z,7.68
2023-03-19T13:01:08.170Z,12.35
2023-03-19T13:06:18.962Z,7.63
2023-03-19T13:11:43.673Z,12.15
2023-03-19T13:17:03.131Z,9.13
2023-03-19T13:22:09.163Z,10.50
2023-03-19T13:27:22.203Z,8.88
2023-03-19T13:32:28.689Z,12.88
2023-03-19T13:37:30.599Z,13.38
2023-03-19T13:42:39.656Z,15.50
2023-03-19T13:47:41.710Z,10.60
2023-03-19T13:53:32.965Z,11.37
2023-03-19T13:58:51.745Z,11.68
2023-03-19T14:03:54.132Z,10.38
2023-03-19T14:08:56.134Z,10.75
2023-03-19T14:13:58.641Z,8.80
2023-03-19T14:19:01.546Z,8.02
2023-03-19T14:24:56.696Z,10.18
2023-03-19T14:30:26.741Z,10.98
2023-03-19T14:35:28.684Z,12.18
2023-03-19T14:40:40.344Z,9.90
2023-03-19T14:45:52.473Z,13.18
2023-03-19T14:50:57.288Z,10.90
2023-03-19T14:55:59.249Z,13.48
2023-03-19T15:01:01.269Z,11.40
2023-03-19T15:06:04.388Z,7.57
2023-03-19T15:11:15.220Z,12.85
2023-03-19T15:16:26.910Z,12.43
2023-03-19T15:21:31.908Z,10.32
2023-03-19T15:26:37.474Z,12.88
2023-03-19T15:31:52.779Z,14.38
2023-03-19T15:37:08.587Z,11.07
2023-03-19T15:42:10.497Z,13.40
2023-03-19T15:47:14.282Z,12.00
2023-03-19T15:52:16.789Z,13.60
2023-03-19T15:57:18.737Z,13.00
2023-03-19T16:02:31.336Z,10.93
2023-03-19T16:07:40.228Z,11.95
2023-03-19T16:12:42.130Z,12.80
2023-03-19T16:17:44.080Z,11.07
2023-03-19T16:22:55.954Z,9.73
2023-03-19T16:27:58.037Z,10.40
2023-03-19T16:33:04.391Z,11.35
2023-03-19T16:38:22.390Z,13.65
2023-03-19T16:43:24.471Z,14.35
2023-03-19T16:48:26.656Z,11.30
2023-03-19T16:53:31.829Z,10.52
2023-03-19T16:58:37.953Z,16.85
2023-03-19T17:03:39.814Z,9.68
2023-03-19T17:08:41.752Z,13.13
2023-03-19T17:13:43.898Z,12.07
2023-03-19T17:18:45.659Z,11.70
2023-03-19T17:23:47.417Z,12.15
2023-03-19T17:28:49.463Z,9.55
2023-03-19T17:33:59.931Z,14.60
2023-03-19T17:39:01.862Z,11.60
2023-03-19T17:44:06.377Z,11.77
2023-03-19T17:49:19.352Z,11.45
2023-03-19T17:54:21.230Z,10.85
2023-03-19T17:59:23.474Z,11.50
2023-03-19T18:04:25.295Z,14.48
2023-03-19T18:09:27.824Z,11.23
2023-03-19T18:14:29.689Z,10.65
2023-03-19T18:19:33.391Z,9.50
2023-03-19T18:24:35.289Z,11.95
2023-03-19T18:29:37.293Z,21.90
2023-03-19T18:34:39.173Z,13.80
2023-03-19T18:39:41.030Z,10.93
2023-03-19T18:44:42.910Z,18.27
2023-03-19T18:49:44.972Z,11.83
2023-03-19T18:54:47.061Z,16.37
2023-03-19T18:59:49.068Z,13.33
2023-03-19T19:04:51.020Z,17.03
2023-03-19T19:09:52.934Z,22.07
2023-03-19T19:14:54.884Z,18.90
2023-03-19T19:19:56.818Z,14.03
2023-03-19T19:24:58.891Z,15.40
2023-03-19T19:30:00.782Z,14.43
2023-03-19T19:35:02.640Z,17.47
2023-03-19T19:40:05.480Z,17.63
2023-03-19T19:45:09.909Z,17.45
2023-03-19T19:50:17.164Z,15.25
2023-03-19T19:55:19.267Z,21.13
2023-03-19T20:00:25.741Z,17.97
2023-03-19T20:05:29.640Z,18.15
2023-03-19T20:10:31.580Z,17.42
2023-03-19T20:15:35.355Z,19.90
2023-03-19T20:20:37.423Z,28.73
2023-03-19T20:25:39.342Z,20.80
2023-03-19T20:30:41.224Z,17.67
2023-03-19T20:35:43.200Z,18.23
2023-03-19T20:40:50.808Z,19.17
2023-03-19T20:45:52.759Z,17.75
2023-03-19T20:50:55.138Z,16.87
2023-03-19T20:55:57.101Z,22.15
2023-03-19T21:00:59.382Z,18.38
2023-03-19T21:06:05.503Z,17.07
2023-03-19T21:11:16.351Z,21.67
2023-03-19T21:16:25.533Z,17.77
2023-03-19T21:21:32.081Z,18.85
2023-03-19T21:26:37.774Z,16.73
2023-03-19T21:31:39.724Z,14.43
2023-03-19T21:36:41.678Z,15.40
2023-03-19T21:41:43.587Z,15.43
2023-03-19T21:46:45.758Z,12.53
2023-03-19T21:51:47.621Z,9.68
2023-03-19T21:56:49.533Z,14.40
2023-03-19T22:01:51.507Z,9.53
2023-03-19T22:06:53.555Z,14.90
2023-03-19T22:11:55.430Z,17.47
2023-03-19T22:16:57.520Z,10.37
2023-03-19T22:21:59.686Z,19.08
2023-03-19T22:27:01.589Z,17.73
2023-03-19T22:32:03.730Z,10.87
2023-03-19T22:37:21.360Z,13.57
2023-03-19T22:42:24.515Z,16.55
2023-03-19T22:47:26.362Z,13.50
2023-03-19T22:52:28.265Z,14.20
2023-03-19T22:57:30.195Z,30.63
2023-03-19T23:02:32.067Z,15.27
2023-03-19T23:07:34.037Z,13.93
2023-03-19T23:12:35.943Z,15.33
2023-03-19T23:17:37.964Z,10.40
2023-03-19T23:22:39.877Z,8.80
2023-03-19T23:27:42.007Z,25.50
2023-03-19T23:32:44.065Z,17.08
2023-03-19T23:37:46.094Z,13.37
2023-03-19T23:42:51.396Z,20.97
2023-03-19T23:47:53.473Z,16.00
2023-03-19T23:52:55.364Z,15.10
2023-03-19T23:57:57.647Z,13.50
